createdAt,value
2017-10-05T00:00:12.708Z,11.85
2017-10-05T00:01:15.224Z,11.84
2017-10-05T00:02:17.249Z,11.90
2017-10-05T00:03:19.201Z,11.96
2017-10-05T00:04:21.139Z,11.93
2017-10-05T00:05:23.138Z,11.95
2017-10-05T00:06:25.877Z,11.92
2017-10-05T00:07:27.897Z,11.95
2017-10-05T00:08:29.930Z,11.91
2017-10-05T00:09:31.890Z,11.96
2017-10-05T00:10:33.828Z,11.93
2017-10-05T00:11:37.921Z,11.92
2017-10-05T00:12:39.834Z,11.96
2017-10-05T00:13:41.681Z,12.03
2017-10-05T00:14:43.626Z,12.11
2017-10-05T00:15:45.577Z,12.10
2017-10-05T00:16:47.623Z,12.09
2017-10-05T00:17:49.511Z,12.08
2017-10-05T00:18:51.479Z,12.10
2017-10-05T00:19:53.498Z,12.14
2017-10-05T00:20:55.407Z,12.12
2017-10-05T00:22:00.087Z,12.14
2017-10-05T00:23:02.011Z,12.17
2017-10-05T00:24:04.013Z,12.18
2017-10-05T00:25:06.479Z,12.18
2017-10-05T00:26:08.353Z,12.18
2017-10-05T00:27:10.381Z,12.20
2017-10-05T00:28:12.342Z,12.19
2017-10-05T00:29:14.271Z,12.19
2017-10-05T00:30:16.164Z,12.21
2017-10-05T00:31:18.082Z,12.23
2017-10-05T00:32:20.048Z,12.23
2017-10-05T00:33:21.961Z,12.23
2017-10-05T00:34:23.955Z,12.28
2017-10-05T00:35:25.881Z,12.26
2017-10-05T00:36:27.782Z,12.26
2017-10-05T00:37:29.732Z,12.27
2017-10-05T00:38:31.720Z,12.26
2017-10-05T00:39:33.723Z,12.24
2017-10-05T00:40:35.689Z,12.27
2017-10-05T00:41:37.635Z,12.24
2017-10-05T00:42:39.598Z,12.23
2017-10-05T00:43:41.509Z,12.25
2017-10-05T00:44:43.500Z,12.24
2017-10-05T00:45:45.448Z,12.24
2017-10-05T00:46:47.417Z,12.29
2017-10-05T00:47:49.410Z,12.25
2017-10-05T00:48:51.828Z,12.28
2017-10-05T00:49:57.430Z,12.26
2017-10-05T00:50:59.320Z,12.30
2017-10-05T00:52:01.273Z,12.26
2017-10-05T00:53:03.322Z,12.24
2017-10-05T00:54:05.266Z,12.23
2017-10-05T00:55:07.214Z,12.21
2017-10-05T00:56:09.257Z,12.24
2017-10-05T00:57:11.224Z,12.23
2017-10-05T00:58:13.260Z,12.17
2017-10-05T00:59:17.273Z,12.19
2017-10-05T01:00:19.173Z,12.19
2017-10-05T01:01:21.110Z,12.21
2017-10-05T01:02:22.558Z,12.20
2017-10-05T01:03:23.952Z,12.21
2017-10-05T01:04:27.877Z,12.18
2017-10-05T01:05:29.825Z,12.19
2017-10-05T01:06:31.792Z,12.18
2017-10-05T01:07:33.657Z,12.26
2017-10-05T01:08:36.157Z,12.28
2017-10-05T01:09:38.032Z,12.24
2017-10-05T01:10:39.959Z,12.24
2017-10-05T01:11:41.891Z,12.24
2017-10-05T01:12:47.807Z,12.26
2017-10-05T01:13:49.831Z,12.25
2017-10-05T01:14:51.842Z,12.26
2017-10-05T01:15:53.812Z,12.27
2017-10-05T01:16:55.749Z,12.28
2017-10-05T01:17:58.336Z,12.30
2017-10-05T01:19:00.328Z,12.27
2017-10-05T01:20:02.262Z,12.28
2017-10-05T01:21:04.241Z,12.30
2017-10-05T01:22:06.212Z,12.32
2017-10-05T01:23:08.153Z,12.33
2017-10-05T01:24:10.125Z,12.31
2017-10-05T01:25:12.085Z,12.32
2017-10-05T01:26:14.036Z,12.36
2017-10-05T01:27:16.014Z,12.32
2017-10-05T01:28:17.945Z,12.33
2017-10-05T01:29:20.903Z,12.30
2017-10-05T01:30:22.947Z,12.29
2017-10-05T01:31:24.892Z,12.30
2017-10-05T01:32:26.801Z,12.30
2017-10-05T01:33:28.891Z,12.30
2017-10-05T01:34:30.913Z,12.29
2017-10-05T01:35:32.836Z,12.32
2017-10-05T01:36:34.788Z,12.31
2017-10-05T01:37:36.750Z,12.29
2017-10-05T01:38:38.663Z,12.31
2017-10-05T01:39:40.641Z,12.30
2017-10-05T01:40:43.480Z,12.32
2017-10-05T01:41:45.490Z,12.33
2017-10-05T01:42:47.414Z,12.35
2017-10-05T01:43:49.374Z,12.36
2017-10-05T01:44:51.435Z,12.36
2017-10-05T01:45:53.384Z,12.34
2017-10-05T01:46:55.286Z,12.35
2017-10-05T01:47:57.314Z,12.36
2017-10-05T01:48:59.266Z,12.36
2017-10-05T01:50:04.070Z,12.40
2017-10-05T01:51:06.148Z,12.40
2017-10-05T01:52:08.174Z,12.42
2017-10-05T01:53:10.342Z,12.40
2017-10-05T01:54:12.301Z,12.40
2017-10-05T01:55:14.311Z,12.41
2017-10-05T01:56:16.730Z,12.44
2017-10-05T01:57:19.045Z,12.43
2017-10-05T01:58:21.039Z,12.44
2017-10-05T01:59:23.109Z,12.42
2017-10-05T02:00:25.099Z,12.40
2017-10-05T02:01:27.033Z,12.39
2017-10-05T02:02:29.037Z,12.39
2017-10-05T02:03:31.007Z,12.40
2017-10-05T02:04:32.892Z,12.42
2017-10-05T02:05:34.864Z,12.42
2017-10-05T02:06:36.935Z,12.42
2017-10-05T02:07:38.863Z,12.41
2017-10-05T02:08:40.797Z,12.40
2017-10-05T02:09:43.566Z,12.38
2017-10-05T02:10:45.546Z,12.42
2017-10-05T02:11:47.640Z,12.44
2017-10-05T02:12:49.570Z,12.43
2017-10-05T02:13:51.506Z,12.40
2017-10-05T02:14:54.099Z,12.38
2017-10-05T02:15:56.098Z,12.39
2017-10-05T02:16:58.029Z,12.39
2017-10-05T02:17:59.928Z,12.41
2017-10-05T02:19:01.813Z,12.43
2017-10-05T02:20:03.729Z,12.44
2017-10-05T02:21:07.653Z,12.40
2017-10-05T02:22:09.615Z,12.40
2017-10-05T02:23:11.534Z,12.37
2017-10-05T02:24:13.521Z,12.38
2017-10-05T02:25:15.385Z,12.38
2017-10-05T02:26:17.440Z,12.39
2017-10-05T02:27:19.375Z,12.37
2017-10-05T02:28:21.903Z,12.39
2017-10-05T02:29:27.313Z,12.44
2017-10-05T02:30:29.272Z,12.41
2017-10-05T02:31:34.585Z,12.43
2017-10-05T02:32:36.511Z,12.41
2017-10-05T02:33:38.568Z,12.43
2017-10-05T02:34:40.503Z,12.44
2017-10-05T02:35:42.345Z,12.45
2017-10-05T02:36:44.343Z,12.43
2017-10-05T02:37:46.234Z,12.44
2017-10-05T02:38:48.610Z,12.43
2017-10-05T02:39:51.432Z,12.44
2017-10-05T02:40:54.041Z,12.48
2017-10-05T02:41:55.975Z,12.44
2017-10-05T02:42:57.865Z,12.45
2017-10-05T02:43:59.904Z,12.43
2017-10-05T02:45:02.654Z,12.48
2017-10-05T02:46:06.059Z,12.44
2017-10-05T02:47:09.069Z,12.44
2017-10-05T02:48:12.210Z,12.40
2017-10-05T02:49:15.548Z,12.38
2017-10-05T02:50:19.104Z,12.36
2017-10-05T02:51:22.313Z,12.34
2017-10-05T02:52:25.412Z,12.40
2017-10-05T02:53:29.548Z,12.42
2017-10-05T02:54:33.670Z,12.42
2017-10-05T02:55:37.715Z,12.40
2017-10-05T02:56:41.705Z,12.37
2017-10-05T02:57:46.719Z,12.38
2017-10-05T02:58:51.057Z,12.41
2017-10-05T02:59:54.310Z,12.41
2017-10-05T03:00:56.737Z,12.39
2017-10-05T03:01:58.639Z,12.36
2017-10-05T03:03:01.832Z,12.37
2017-10-05T03:04:06.107Z,12.37
2017-10-05T03:05:10.556Z,12.31
2017-10-05T03:06:13.562Z,12.32
2017-10-05T03:07:17.082Z,12.28
2017-10-05T03:08:19.517Z,12.23
2017-10-05T03:09:22.996Z,12.17
2017-10-05T03:10:26.539Z,12.05
2017-10-05T03:11:29.781Z,11.98
2017-10-05T03:12:33.003Z,11.92
2017-10-05T03:13:35.911Z,11.85
2017-10-05T03:14:40.021Z,11.80
2017-10-05T03:15:43.218Z,11.76
2017-10-05T03:16:46.532Z,11.78
2017-10-05T03:17:50.887Z,11.78
2017-10-05T03:18:54.790Z,11.75
2017-10-05T03:19:58.176Z,11.74
2017-10-05T03:21:05.696Z,11.78
2017-10-05T03:22:09.855Z,11.78
2017-10-05T03:23:14.484Z,11.77
2017-10-05T03:24:18.174Z,11.75
2017-10-05T03:25:21.231Z,11.74
2017-10-05T03:26:24.286Z,11.77
2017-10-05T03:27:27.195Z,11.73
2017-10-05T03:28:29.954Z,11.72
2017-10-05T03:29:36.435Z,11.68
2017-10-05T03:30:40.859Z,11.64
2017-10-05T03:31:43.898Z,11.57
2017-10-05T03:32:46.763Z,11.57
2017-10-05T03:33:49.234Z,11.54
2017-10-05T03:34:51.186Z,11.54
2017-10-05T03:35:53.113Z,11.57
2017-10-05T03:36:55.053Z,11.54
2017-10-05T03:37:56.953Z,11.46
2017-10-05T03:38:58.889Z,11.42
2017-10-05T03:40:00.835Z,11.38
2017-10-05T03:41:02.951Z,11.41
2017-10-05T03:42:04.853Z,11.40
2017-10-05T03:43:06.860Z,11.40
2017-10-05T03:44:08.903Z,11.35
2017-10-05T03:45:13.011Z,11.34
2017-10-05T03:46:14.944Z,11.32
2017-10-05T03:47:16.979Z,11.31
2017-10-05T03:48:18.993Z,11.31
2017-10-05T03:49:20.927Z,11.34
2017-10-05T03:50:22.971Z,11.29
2017-10-05T03:51:24.927Z,11.25
2017-10-05T03:52:26.882Z,11.31
2017-10-05T03:53:28.891Z,11.28
2017-10-05T03:54:30.932Z,11.24
2017-10-05T03:55:32.883Z,11.27
2017-10-05T03:56:34.997Z,11.27
2017-10-05T03:57:36.916Z,11.27
2017-10-05T03:58:38.936Z,11.23
2017-10-05T03:59:40.904Z,11.24
2017-10-05T04:00:42.925Z,11.22
2017-10-05T04:01:44.908Z,11.26
2017-10-05T04:02:47.160Z,11.30
2017-10-05T04:03:49.166Z,11.33
2017-10-05T04:04:51.081Z,11.31
2017-10-05T04:05:53.065Z,11.32
2017-10-05T04:06:55.034Z,11.33
2017-10-05T04:07:56.997Z,11.26
2017-10-05T04:08:58.928Z,11.23
2017-10-05T04:10:00.873Z,11.24
2017-10-05T04:11:03.229Z,11.20
2017-10-05T04:12:05.326Z,11.24
2017-10-05T04:13:07.325Z,11.21
2017-10-05T04:14:09.195Z,11.15
2017-10-05T04:15:11.179Z,11.18
2017-10-05T04:16:13.216Z,11.19
2017-10-05T04:17:15.672Z,11.19
2017-10-05T04:18:17.570Z,11.19
2017-10-05T04:19:19.511Z,11.15
2017-10-05T04:20:21.476Z,11.11
2017-10-05T04:21:23.533Z,11.10
2017-10-05T04:22:25.438Z,11.06
2017-10-05T04:23:27.374Z,10.98
2017-10-05T04:24:29.377Z,10.99
2017-10-05T04:25:31.434Z,10.92
2017-10-05T04:26:33.380Z,10.90
2017-10-05T04:27:35.311Z,10.86
2017-10-05T04:28:37.216Z,10.86
2017-10-05T04:29:39.133Z,10.81
2017-10-05T04:30:41.060Z,10.78
2017-10-05T04:31:43.028Z,10.76
2017-10-05T04:32:44.972Z,10.73
2017-10-05T04:33:46.899Z,10.71
2017-10-05T04:34:48.870Z,10.69
2017-10-05T04:35:50.809Z,10.71
2017-10-05T04:36:52.797Z,10.69
2017-10-05T04:37:54.698Z,10.67
2017-10-05T04:38:57.376Z,10.68
2017-10-05T04:39:59.277Z,10.67
2017-10-05T04:41:01.198Z,10.70
2017-10-05T04:42:03.143Z,10.65
2017-10-05T04:43:05.603Z,10.60
2017-10-05T04:44:07.621Z,10.64
2017-10-05T04:45:09.656Z,10.60
2017-10-05T04:46:11.597Z,10.63
2017-10-05T04:47:13.766Z,10.57
2017-10-05T04:48:16.107Z,10.56
2017-10-05T04:49:18.388Z,10.61
2017-10-05T04:50:20.881Z,10.59
2017-10-05T04:51:23.295Z,10.58
2017-10-05T04:52:25.847Z,10.63
2017-10-05T04:53:27.848Z,10.65
2017-10-05T04:54:29.817Z,10.60
2017-10-05T04:55:32.200Z,10.59
2017-10-05T04:56:34.921Z,10.54
2017-10-05T04:57:37.079Z,10.53
2017-10-05T04:58:39.072Z,10.51
2017-10-05T04:59:40.959Z,10.53
2017-10-05T05:00:43.138Z,10.52
2017-10-05T05:01:45.415Z,10.55
2017-10-05T05:02:48.056Z,10.55
2017-10-05T05:03:50.051Z,10.53
2017-10-05T05:04:51.982Z,10.54
2017-10-05T05:05:53.908Z,10.51
2017-10-05T05:06:59.553Z,10.50
2017-10-05T05:08:01.482Z,10.49
2017-10-05T05:09:03.998Z,10.48
2017-10-05T05:10:05.953Z,10.51
2017-10-05T05:11:07.873Z,10.51
2017-10-05T05:12:09.845Z,10.48
2017-10-05T05:13:11.796Z,10.45
2017-10-05T05:14:13.732Z,10.44
2017-10-05T05:15:15.653Z,10.49
2017-10-05T05:16:17.622Z,10.50
2017-10-05T05:17:19.488Z,10.49
2017-10-05T05:18:21.438Z,10.45
2017-10-05T05:19:23.363Z,10.45
2017-10-05T05:20:25.226Z,10.47
2017-10-05T05:21:27.113Z,10.48
2017-10-05T05:22:29.022Z,10.48
2017-10-05T05:23:31.075Z,10.43
2017-10-05T05:24:32.984Z,10.43
2017-10-05T05:25:34.869Z,10.46
2017-10-05T05:26:36.808Z,10.41
2017-10-05T05:27:38.791Z,10.41
2017-10-05T05:28:40.812Z,10.40
2017-10-05T05:29:43.820Z,10.46
2017-10-05T05:30:46.986Z,10.48
2017-10-05T05:31:48.924Z,10.43
2017-10-05T05:32:50.935Z,10.46
2017-10-05T05:33:52.892Z,10.46
2017-10-05T05:34:54.940Z,10.46
2017-10-05T05:35:56.932Z,10.54
2017-10-05T05:36:58.973Z,10.50
2017-10-05T05:38:00.933Z,10.57
2017-10-05T05:39:02.862Z,10.47
2017-10-05T05:40:05.145Z,10.47
2017-10-05T05:41:07.110Z,10.45
2017-10-05T05:42:09.020Z,10.47
2017-10-05T05:43:10.949Z,10.43
2017-10-05T05:44:12.941Z,10.43
2017-10-05T05:45:14.854Z,10.43
2017-10-05T05:46:16.847Z,10.50
2017-10-05T05:47:18.818Z,10.46
2017-10-05T05:48:20.850Z,10.43
2017-10-05T05:49:22.837Z,10.43
2017-10-05T05:50:24.774Z,10.43
2017-10-05T05:51:26.674Z,10.43
2017-10-05T05:52:28.586Z,10.45
2017-10-05T05:53:30.479Z,10.48
2017-10-05T05:54:32.481Z,10.47
2017-10-05T05:55:34.409Z,10.47
2017-10-05T05:56:36.339Z,10.50
2017-10-05T05:57:38.312Z,10.47
2017-10-05T05:58:40.313Z,10.48
2017-10-05T05:59:42.327Z,10.49
2017-10-05T06:00:44.214Z,10.52
2017-10-05T06:01:46.291Z,10.53
2017-10-05T06:02:48.198Z,10.49
2017-10-05T06:03:50.143Z,10.48
2017-10-05T06:04:52.153Z,10.48
2017-10-05T06:05:54.086Z,10.51
2017-10-05T06:06:56.009Z,10.50
2017-10-05T06:07:57.962Z,10.51
2017-10-05T06:08:59.872Z,10.51
2017-10-05T06:10:01.875Z,10.49
2017-10-05T06:11:04.265Z,10.48
2017-10-05T06:12:06.194Z,10.50
2017-10-05T06:13:08.137Z,10.51
2017-10-05T06:14:10.048Z,10.51
2017-10-05T06:15:12.009Z,10.52
2017-10-05T06:16:13.901Z,10.51
2017-10-05T06:17:15.801Z,10.54
2017-10-05T06:18:20.917Z,10.57
2017-10-05T06:19:22.909Z,10.58
2017-10-05T06:20:24.929Z,10.59
2017-10-05T06:21:26.853Z,10.56
2017-10-05T06:22:28.772Z,10.56
2017-10-05T06:23:30.734Z,10.57
2017-10-05T06:24:32.663Z,10.59
2017-10-05T06:25:34.639Z,10.59
2017-10-05T06:26:36.593Z,10.60
2017-10-05T06:27:38.496Z,10.59
2017-10-05T06:28:40.444Z,10.59
2017-10-05T06:29:42.305Z,10.57
2017-10-05T06:30:44.229Z,10.58
2017-10-05T06:31:46.283Z,10.57
2017-10-05T06:32:48.187Z,10.55
2017-10-05T06:33:53.033Z,10.57
2017-10-05T06:34:54.944Z,10.57
2017-10-05T06:35:56.908Z,10.59
2017-10-05T06:36:58.799Z,10.62
2017-10-05T06:38:00.737Z,10.59
2017-10-05T06:39:02.671Z,10.60
2017-10-05T06:40:04.609Z,10.60
2017-10-05T06:41:06.538Z,10.63
2017-10-05T06:42:11.705Z,10.61
2017-10-05T06:43:13.675Z,10.62
2017-10-05T06:44:15.578Z,10.64
2017-10-05T06:45:17.441Z,10.65
2017-10-05T06:46:19.377Z,10.68
2017-10-05T06:47:21.276Z,10.68
2017-10-05T06:48:23.183Z,10.71
2017-10-05T06:49:27.901Z,10.70
2017-10-05T06:50:29.771Z,10.74
2017-10-05T06:51:35.405Z,10.74
2017-10-05T06:52:37.314Z,10.70
2017-10-05T06:53:39.228Z,10.76
2017-10-05T06:54:41.178Z,10.78
2017-10-05T06:55:45.672Z,10.83
2017-10-05T06:56:47.689Z,10.85
2017-10-05T06:57:49.630Z,10.77
2017-10-05T06:58:51.776Z,10.75
2017-10-05T06:59:53.691Z,10.75
2017-10-05T07:00:55.575Z,10.77
2017-10-05T07:01:57.574Z,10.80
2017-10-05T07:02:59.501Z,10.78
2017-10-05T07:04:01.416Z,10.78
2017-10-05T07:05:03.315Z,10.76
2017-10-05T07:06:05.207Z,10.76
2017-10-05T07:07:07.227Z,10.82
2017-10-05T07:08:09.460Z,10.81
2017-10-05T07:09:11.408Z,10.80
2017-10-05T07:10:14.367Z,10.80
2017-10-05T07:11:16.258Z,10.80
2017-10-05T07:12:18.202Z,10.82
2017-10-05T07:13:20.107Z,10.82
2017-10-05T07:14:21.995Z,10.82
2017-10-05T07:15:23.886Z,10.84
2017-10-05T07:16:25.778Z,10.86
2017-10-05T07:17:27.729Z,10.85
2017-10-05T07:18:29.621Z,10.86
2017-10-05T07:19:31.642Z,10.87
2017-10-05T07:20:33.546Z,10.86
2017-10-05T07:21:35.476Z,10.87
2017-10-05T07:22:37.388Z,10.86
2017-10-05T07:23:39.273Z,10.88
2017-10-05T07:24:41.147Z,10.87
2017-10-05T07:25:43.031Z,10.90
2017-10-05T07:26:44.920Z,10.92
2017-10-05T07:27:46.855Z,10.89
2017-10-05T07:28:49.760Z,10.90
2017-10-05T07:29:51.630Z,10.91
2017-10-05T07:30:53.506Z,10.89
2017-10-05T07:31:55.444Z,10.89
2017-10-05T07:32:57.384Z,10.89
2017-10-05T07:33:59.287Z,10.91
2017-10-05T07:35:01.281Z,10.91
2017-10-05T07:36:03.176Z,10.90
2017-10-05T07:37:05.131Z,10.93
2017-10-05T07:38:07.095Z,10.94
2017-10-05T07:39:09.036Z,10.94
2017-10-05T07:40:11.013Z,10.94
2017-10-05T07:41:12.927Z,10.97
2017-10-05T07:42:14.817Z,10.99
2017-10-05T07:43:16.787Z,11.01
2017-10-05T07:44:18.711Z,11.08
2017-10-05T07:45:20.661Z,11.07
2017-10-05T07:46:22.639Z,11.07
2017-10-05T07:47:24.593Z,11.07
2017-10-05T07:48:26.566Z,11.06
2017-10-05T07:49:28.508Z,11.06
2017-10-05T07:50:30.395Z,11.07
2017-10-05T07:51:32.326Z,11.07
2017-10-05T07:52:34.274Z,11.05
2017-10-05T07:53:36.282Z,11.02
2017-10-05T07:54:38.247Z,11.05
2017-10-05T07:55:40.184Z,11.04
2017-10-05T07:56:42.129Z,11.03
2017-10-05T07:57:44.061Z,11.07
2017-10-05T07:58:46.096Z,11.11
2017-10-05T07:59:48.012Z,11.11
2017-10-05T08:00:49.903Z,11.10
2017-10-05T08:01:51.809Z,11.13
2017-10-05T08:02:53.747Z,11.12
2017-10-05T08:03:55.765Z,11.13
2017-10-05T08:04:57.715Z,11.14
2017-10-05T08:05:59.903Z,11.19
2017-10-05T08:07:01.826Z,11.19
2017-10-05T08:08:03.657Z,11.18
2017-10-05T08:09:05.656Z,11.17
2017-10-05T08:10:07.740Z,11.16
2017-10-05T08:11:09.659Z,11.15
2017-10-05T08:12:11.565Z,11.17
2017-10-05T08:13:13.482Z,11.18
2017-10-05T08:14:15.429Z,11.17
2017-10-05T08:15:17.392Z,11.22
2017-10-05T08:16:19.309Z,11.23
2017-10-05T08:17:21.262Z,11.21
2017-10-05T08:18:23.160Z,11.23
2017-10-05T08:19:25.082Z,11.25
2017-10-05T08:20:26.952Z,11.24
2017-10-05T08:21:28.810Z,11.22
2017-10-05T08:22:30.693Z,11.25
2017-10-05T08:23:32.637Z,11.27
2017-10-05T08:24:34.564Z,11.29
2017-10-05T08:25:36.459Z,11.27
2017-10-05T08:26:38.390Z,11.25
2017-10-05T08:27:40.290Z,11.27
2017-10-05T08:28:42.202Z,11.29
2017-10-05T08:29:44.178Z,11.30
2017-10-05T08:30:48.088Z,11.32
2017-10-05T08:31:49.970Z,11.35
2017-10-05T08:32:51.826Z,11.34
2017-10-05T08:33:53.763Z,11.33
2017-10-05T08:34:55.669Z,11.35
2017-10-05T08:35:57.592Z,11.33
2017-10-05T08:36:59.512Z,11.27
2017-10-05T08:38:01.383Z,11.32
2017-10-05T08:39:03.332Z,11.30
2017-10-05T08:40:05.366Z,11.29
2017-10-05T08:41:07.249Z,11.33
2017-10-05T08:42:09.143Z,11.34
2017-10-05T08:43:11.063Z,11.34
2017-10-05T08:44:13.017Z,11.34
2017-10-05T08:45:15.065Z,11.34
2017-10-05T08:46:20.660Z,11.35
2017-10-05T08:47:22.526Z,11.42
2017-10-05T08:48:24.555Z,11.42
2017-10-05T08:49:26.506Z,11.39
2017-10-05T08:50:28.482Z,11.36
2017-10-05T08:51:30.490Z,11.36
2017-10-05T08:52:32.421Z,11.37
2017-10-05T08:53:34.309Z,11.38
2017-10-05T08:54:36.324Z,11.38
2017-10-05T08:55:38.292Z,11.39
2017-10-05T08:56:40.254Z,11.39
2017-10-05T08:57:42.173Z,11.40
2017-10-05T08:58:44.128Z,11.40
2017-10-05T08:59:46.118Z,11.39
2017-10-05T09:00:48.073Z,11.40
2017-10-05T09:01:49.994Z,11.42
2017-10-05T09:02:51.929Z,11.43
2017-10-05T09:03:53.891Z,11.43
2017-10-05T09:04:55.825Z,11.50
2017-10-05T09:05:57.785Z,11.59
2017-10-05T09:06:59.681Z,11.55
2017-10-05T09:08:01.583Z,11.59
2017-10-05T09:09:03.519Z,11.62
2017-10-05T09:10:05.456Z,11.58
2017-10-05T09:11:07.449Z,11.56
2017-10-05T09:12:09.377Z,11.56
2017-10-05T09:13:11.263Z,11.62
2017-10-05T09:14:13.146Z,11.63
2017-10-05T09:15:15.063Z,11.62
2017-10-05T09:16:17.072Z,11.63
2017-10-05T09:17:19.167Z,11.65
2017-10-05T09:18:21.129Z,11.68
2017-10-05T09:19:23.085Z,11.72
2017-10-05T09:20:25.015Z,11.69
2017-10-05T09:21:26.989Z,11.67
2017-10-05T09:22:28.946Z,11.75
2017-10-05T09:23:30.911Z,11.76
2017-10-05T09:24:32.838Z,11.77
2017-10-05T09:25:34.852Z,11.83
2017-10-05T09:26:37.161Z,11.82
2017-10-05T09:27:39.821Z,11.80
2017-10-05T09:28:41.785Z,11.80
2017-10-05T09:29:43.685Z,11.84
2017-10-05T09:30:45.601Z,11.85
2017-10-05T09:31:47.590Z,11.85
2017-10-05T09:32:49.730Z,11.84
2017-10-05T09:33:51.710Z,11.85
2017-10-05T09:34:53.632Z,11.89
2017-10-05T09:35:55.509Z,11.95
2017-10-05T09:36:57.458Z,11.97
2017-10-05T09:37:59.965Z,12.02
2017-10-05T09:39:03.381Z,12.04
2017-10-05T09:40:08.554Z,12.04
2017-10-05T09:41:10.494Z,12.06
2017-10-05T09:42:12.433Z,12.07
2017-10-05T09:43:14.378Z,12.12
2017-10-05T09:44:20.274Z,12.11
2017-10-05T09:45:23.206Z,12.15
2017-10-05T09:46:25.152Z,12.14
2017-10-05T09:47:27.119Z,12.18
2017-10-05T09:48:29.143Z,12.20
2017-10-05T09:49:31.059Z,12.26
2017-10-05T09:50:33.349Z,12.36
2017-10-05T09:51:35.229Z,12.36
2017-10-05T09:52:37.186Z,12.40
2017-10-05T09:53:39.120Z,12.43
2017-10-05T09:54:41.017Z,12.44
2017-10-05T09:55:42.925Z,12.43
2017-10-05T09:56:48.461Z,12.49
2017-10-05T09:57:50.387Z,12.53
2017-10-05T09:58:52.314Z,12.53
2017-10-05T09:59:54.321Z,12.53
2017-10-05T10:00:56.247Z,12.61
2017-10-05T10:01:58.175Z,12.57
2017-10-05T10:03:00.137Z,12.62
2017-10-05T10:04:02.070Z,12.62
2017-10-05T10:05:05.979Z,12.61
2017-10-05T10:06:08.978Z,12.67
2017-10-05T10:07:10.907Z,12.68
2017-10-05T10:08:12.803Z,12.69
2017-10-05T10:09:15.616Z,12.68
2017-10-05T10:10:18.430Z,12.75
2017-10-05T10:11:20.387Z,12.73
2017-10-05T10:12:23.320Z,12.72
2017-10-05T10:13:26.085Z,12.84
2017-10-05T10:14:28.073Z,12.87
2017-10-05T10:15:29.942Z,12.89
2017-10-05T10:16:31.939Z,12.91
2017-10-05T10:17:33.878Z,12.91
2017-10-05T10:18:35.859Z,12.97
2017-10-05T10:19:37.798Z,12.98
2017-10-05T10:20:39.721Z,12.97
2017-10-05T10:21:41.689Z,12.97
2017-10-05T10:22:43.614Z,12.99
2017-10-05T10:23:45.563Z,12.96
2017-10-05T10:24:47.508Z,12.95
2017-10-05T10:25:49.364Z,13.01
2017-10-05T10:26:51.308Z,13.17
2017-10-05T10:27:53.227Z,13.14
2017-10-05T10:28:55.184Z,13.10
2017-10-05T10:29:57.441Z,13.10
2017-10-05T10:30:59.405Z,13.10
2017-10-05T10:32:01.246Z,13.10
2017-10-05T10:33:04.049Z,13.13
2017-10-05T10:34:06.113Z,13.16
2017-10-05T10:35:08.536Z,13.17
2017-10-05T10:36:14.886Z,13.24
2017-10-05T10:37:18.002Z,13.22
2017-10-05T10:38:19.905Z,13.24
2017-10-05T10:39:21.845Z,13.22
2017-10-05T10:40:23.736Z,13.24
2017-10-05T10:41:26.377Z,13.29
2017-10-05T10:42:28.297Z,13.28
2017-10-05T10:43:30.305Z,13.28
2017-10-05T10:44:32.311Z,13.30
2017-10-05T10:45:34.262Z,13.27
2017-10-05T10:46:36.179Z,13.30
2017-10-05T10:47:38.113Z,13.34
2017-10-05T10:48:40.091Z,13.37
2017-10-05T10:49:42.301Z,13.35
2017-10-05T10:50:44.282Z,13.42
2017-10-05T10:51:51.656Z,13.41
2017-10-05T10:54:01.132Z,13.45
2017-10-05T10:55:03.142Z,13.40
2017-10-05T10:56:05.117Z,13.40
2017-10-05T10:57:07.458Z,13.41
2017-10-05T10:58:09.422Z,13.40
2017-10-05T10:59:11.346Z,13.46
2017-10-05T11:00:13.323Z,13.42
2017-10-05T11:01:15.249Z,13.43
2017-10-05T11:02:17.277Z,13.42
2017-10-05T11:03:19.282Z,13.43
2017-10-05T11:04:21.248Z,13.44
2017-10-05T11:05:23.467Z,13.46
2017-10-05T11:06:27.778Z,13.47
2017-10-05T11:07:30.120Z,13.49
2017-10-05T11:08:32.238Z,13.50
2017-10-05T11:09:35.721Z,13.48
2017-10-05T11:10:37.720Z,13.48
2017-10-05T11:11:40.573Z,13.56
2017-10-05T11:12:42.695Z,13.58
2017-10-05T11:13:44.639Z,13.58
2017-10-05T11:14:48.351Z,13.59
2017-10-05T11:15:50.307Z,13.62
2017-10-05T11:16:52.241Z,13.62
2017-10-05T11:17:54.230Z,13.69
2017-10-05T11:18:56.262Z,13.73
2017-10-05T11:19:59.132Z,13.76
2017-10-05T11:21:03.086Z,13.78
2017-10-05T11:22:05.004Z,13.83
2017-10-05T11:23:06.950Z,13.81
2017-10-05T11:24:08.910Z,13.81
2017-10-05T11:25:13.911Z,13.86
2017-10-05T11:26:15.938Z,13.85
2017-10-05T11:27:18.064Z,13.87
2017-10-05T11:28:21.257Z,13.91
2017-10-05T11:29:23.164Z,13.91
2017-10-05T11:30:25.099Z,13.92
2017-10-05T11:31:27.081Z,13.91
2017-10-05T11:32:32.906Z,13.99
2017-10-05T11:33:35.563Z,14.02
2017-10-05T11:34:37.565Z,14.03
2017-10-05T11:35:39.460Z,14.03
2017-10-05T11:36:43.286Z,14.06
2017-10-05T11:37:45.189Z,14.10
2017-10-05T11:38:47.154Z,14.17
2017-10-05T11:39:49.138Z,14.23
2017-10-05T11:40:51.072Z,14.26
2017-10-05T11:41:53.680Z,14.26
2017-10-05T11:42:55.633Z,14.30
2017-10-05T11:43:57.570Z,14.32
2017-10-05T11:44:59.473Z,14.38
2017-10-05T11:46:01.348Z,14.41
2017-10-05T11:47:03.387Z,14.43
2017-10-05T11:49:18.491Z,14.52
2017-10-05T11:50:20.430Z,14.57
2017-10-05T11:51:23.182Z,14.63
2017-10-05T11:52:25.703Z,14.70
2017-10-05T11:53:28.041Z,14.73
2017-10-05T11:54:31.735Z,14.78
2017-10-05T11:55:33.839Z,14.79
2017-10-05T11:56:35.817Z,14.83
2017-10-05T11:57:38.474Z,14.82
2017-10-05T11:58:44.430Z,14.79
2017-10-05T11:59:47.107Z,14.81
2017-10-05T12:00:49.058Z,14.90
2017-10-05T12:01:50.958Z,14.95
2017-10-05T12:02:52.857Z,14.94
2017-10-05T12:03:55.394Z,14.98
2017-10-05T12:04:57.381Z,15.06
2017-10-05T12:05:59.327Z,15.07
2017-10-05T12:07:01.444Z,15.06
2017-10-05T12:08:04.249Z,15.03
2017-10-05T12:09:06.342Z,15.02
2017-10-05T12:10:08.855Z,15.02
2017-10-05T12:11:12.693Z,15.00
2017-10-05T12:12:14.607Z,15.00
2017-10-05T12:13:16.603Z,15.03
2017-10-05T12:14:18.514Z,15.09
2017-10-05T12:15:21.158Z,15.12
2017-10-05T12:16:28.365Z,15.16
2017-10-05T12:17:31.213Z,15.21
2017-10-05T12:18:36.358Z,15.23
2017-10-05T12:19:38.662Z,15.26
2017-10-05T12:20:40.657Z,15.29
2017-10-05T12:21:42.526Z,15.29
2017-10-05T12:22:44.401Z,15.34
2017-10-05T12:23:46.424Z,15.45
2017-10-05T12:24:49.721Z,15.46
2017-10-05T12:25:54.148Z,15.42
2017-10-05T12:26:59.278Z,15.42
2017-10-05T12:28:01.145Z,15.42
2017-10-05T12:29:03.772Z,15.37
2017-10-05T12:30:07.761Z,15.38
2017-10-05T12:31:12.769Z,15.39
2017-10-05T12:32:14.715Z,15.43
2017-10-05T12:33:16.647Z,15.47
2017-10-05T12:34:18.589Z,15.58
2017-10-05T12:35:20.460Z,15.62
2017-10-05T12:36:22.519Z,15.75
2017-10-05T12:37:27.156Z,15.97
2017-10-05T12:38:29.717Z,15.97
2017-10-05T12:39:32.639Z,16.11
2017-10-05T12:40:34.545Z,16.20
2017-10-05T12:41:38.499Z,16.31
2017-10-05T12:42:40.425Z,16.38
2017-10-05T12:43:43.505Z,16.46
2017-10-05T12:44:46.589Z,16.67
2017-10-05T12:45:48.525Z,16.62
2017-10-05T12:46:50.472Z,16.75
2017-10-05T12:48:05.482Z,17.02
2017-10-05T12:49:07.366Z,17.16
2017-10-05T12:50:09.988Z,17.32
2017-10-05T12:51:18.737Z,17.09
2017-10-05T12:52:23.524Z,16.93
2017-10-05T12:53:26.326Z,17.19
2017-10-05T12:54:28.229Z,17.32
2017-10-05T12:55:30.855Z,17.16
2017-10-05T12:56:32.914Z,17.39
2017-10-05T12:57:41.652Z,17.10
2017-10-05T12:58:45.339Z,16.81
2017-10-05T12:59:47.326Z,16.51
2017-10-05T13:00:50.978Z,16.27
2017-10-05T13:01:53.709Z,16.44
2017-10-05T13:02:55.678Z,16.96
2017-10-05T13:03:57.687Z,17.25
2017-10-05T13:04:59.650Z,17.09
2017-10-05T13:06:02.768Z,17.02
2017-10-05T13:07:08.445Z,16.53
2017-10-05T13:08:10.352Z,16.42
2017-10-05T13:09:12.206Z,16.70
2017-10-05T13:10:14.118Z,16.90
2017-10-05T13:11:18.761Z,16.94
2017-10-05T13:12:22.582Z,17.00
2017-10-05T13:13:25.925Z,16.94
2017-10-05T13:14:28.769Z,16.93
2017-10-05T13:15:30.653Z,17.05
2017-10-05T13:16:32.557Z,16.89
2017-10-05T13:17:38.151Z,16.65
2017-10-05T13:18:40.619Z,16.48
2017-10-05T13:19:45.266Z,16.36
2017-10-05T13:20:47.222Z,16.27
2017-10-05T13:21:50.037Z,16.21
2017-10-05T13:22:51.986Z,16.12
2017-10-05T13:23:53.998Z,16.08
2017-10-05T13:24:55.909Z,15.99